sensor_id;sensor_type;location;lat;lon;timestamp;P1;durP1;ratioP1;P2;durP2;ratioP2
38899;SDS011;24660;43.238;26.576;2022-07-01T13:00:25;14.63;;;13.52;;
38899;SDS011;24660;43.238;26.576;2022-07-01T13:02:53;14.80;;;13.70;;
38899;SDS011;24660;43.238;26.576;2022-07-01T13:05:20;16.88;;;15.57;;
38899;SDS011;24660;43.238;26.576;2022-07-01T13:07:46;18.92;;;17.42;;
38899;SDS011;24660;43.238;26.576;2022-07-01T13:10:15;19.70;;;18.10;;
38899;SDS011;24660;43.238;26.576;2022-07-01T13:12:42;19.02;;;17.52;;
38899;SDS011;24660;43.238;26.576;2022-07-01T13:15:09;18.00;;;16.60;;
38899;SDS011;24660;43.238;26.576;2022-07-01T13:17:36;17.85;;;16.45;;
38899;SDS011;24660;43.238;26.576;2022-07-01T13:20:02;18.67;;;17.17;;
38899;SDS011;24660;43.238;26.576;2022-07-01T13:22:28;17.92;;;16.52;;
38899;SDS011;24660;43.238;26.576;2022-07-01T13:24:53;18.65;;;17.23;;
38899;SDS011;24660;43.238;26.576;2022-07-01T13:27:19;18.33;;;16.92;;
38899;SDS011;24660;43.238;26.576;2022-07-01T13:29:44;18.77;;;17.27;;
38899;SDS011;24660;43.238;26.576;2022-07-01T13:32:10;17.17;;;15.88;;
38899;SDS011;24660;43.238;26.576;2022-07-01T13:34:36;16.10;;;14.90;;
38899;SDS011;24660;43.238;26.576;2022-07-01T13:37:02;16.00;;;14.80;;
38899;SDS011;24660;43.238;26.576;2022-07-01T13:39:28;18.02;;;16.63;;
38899;SDS011;24660;43.238;26.576;2022-07-01T13:41:53;17.23;;;15.93;;
38899;SDS011;24660;43.238;26.576;2022-07-01T13:44:21;17.70;;;16.30;;
38899;SDS011;24660;43.238;26.576;2022-07-01T13:46:46;18.85;;;17.35;;
38899;SDS011;24660;43.238;26.576;2022-07-01T13:49:12;18.63;;;17.13;;
38899;SDS011;24660;43.238;26.576;2022-07-01T13:51:37;19.13;;;17.63;;
38899;SDS011;24660;43.238;26.576;2022-07-01T13:54:03;19.90;;;18.30;;
38899;SDS011;24660;43.238;26.576;2022-07-01T13:56:28;20.30;;;18.70;;
38899;SDS011;24660;43.238;26.576;2022-07-01T13:58:54;19.63;;;18.02;;
38899;SDS011;24660;43.238;26.576;2022-07-01T14:01:20;19.80;;;18.20;;
38899;SDS011;24660;43.238;26.576;2022-07-01T14:03:48;19.65;;;18.10;;
38899;SDS011;24660;43.238;26.576;2022-07-01T14:06:14;20.02;;;18.42;;
38899;SDS011;24660;43.238;26.576;2022-07-01T14:08:40;20.55;;;18.88;;
38899;SDS011;24660;43.238;26.576;2022-07-01T14:11:06;20.55;;;18.95;;
38899;SDS011;24660;43.238;26.576;2022-07-01T14:13:32;20.05;;;18.45;;
38899;SDS011;24660;43.238;26.576;2022-07-01T14:15:59;19.65;;;18.05;;
38899;SDS011;24660;43.238;26.576;2022-07-01T14:18:25;19.58;;;17.98;;
38899;SDS011;24660;43.238;26.576;2022-07-01T14:20:51;19.73;;;18.13;;
38899;SDS011;24660;43.238;26.576;2022-07-01T14:23:16;19.58;;;18.08;;
38899;SDS011;24660;43.238;26.576;2022-07-01T14:25:41;20.25;;;18.65;;
38899;SDS011;24660;43.238;26.576;2022-07-01T14:28:08;20.48;;;18.88;;
38899;SDS011;24660;43.238;26.576;2022-07-01T14:30:34;20.30;;;18.70;;
38899;SDS011;24660;43.238;26.576;2022-07-01T14:32:59;20.23;;;18.63;;
38899;SDS011;24660;43.238;26.576;2022-07-01T14:35:26;19.60;;;18.10;;
38899;SDS011;24660;43.238;26.576;2022-07-01T14:37:52;19.80;;;18.30;;
38899;SDS011;24660;43.238;26.576;2022-07-01T14:40:18;20.00;;;18.50;;
38899;SDS011;24660;43.238;26.576;2022-07-01T14:42:43;19.67;;;18.17;;
38899;SDS011;24660;43.238;26.576;2022-07-01T14:45:10;19.58;;;18.08;;
38899;SDS011;24660;43.238;26.576;2022-07-01T14:47:38;19.60;;;18.10;;
38899;SDS011;24660;43.238;26.576;2022-07-01T14:50:05;19.50;;;18.00;;
38899;SDS011;24660;43.238;26.576;2022-07-01T14:52:31;19.58;;;18.17;;
38899;SDS011;24660;43.238;26.576;2022-07-01T14:54:56;19.27;;;17.88;;
38899;SDS011;24660;43.238;26.576;2022-07-01T14:57:22;20.02;;;18.52;;
38899;SDS011;24660;43.238;26.576;2022-07-01T14:59:48;19.67;;;18.17;;
38899;SDS011;24660;43.238;26.576;2022-07-01T15:02:13;19.77;;;18.30;;
38899;SDS011;24660;43.238;26.576;2022-07-01T15:04:39;19.23;;;17.83;;
38899;SDS011;24660;43.238;26.576;2022-07-01T15:07:06;19.88;;;18.38;;
38899;SDS011;24660;43.238;26.576;2022-07-01T15:09:32;19.88;;;18.38;;
38899;SDS011;24660;43.238;26.576;2022-07-01T15:11:58;19.85;;;18.35;;
38899;SDS011;24660;43.238;26.576;2022-07-01T15:14:23;19.30;;;17.85;;
38899;SDS011;24660;43.238;26.576;2022-07-01T15:16:49;19.15;;;17.75;;
38899;SDS011;24660;43.238;26.576;2022-07-01T15:19:15;19.65;;;18.15;;
38899;SDS011;24660;43.238;26.576;2022-07-01T15:21:41;19.42;;;17.95;;
38899;SDS011;24660;43.238;26.576;2022-07-01T15:24:06;19.15;;;17.75;;
38899;SDS011;24660;43.238;26.576;2022-07-01T15:26:32;19.27;;;17.88;;
38899;SDS011;24660;43.238;26.576;2022-07-01T15:28:57;19.25;;;17.85;;
38899;SDS011;24660;43.238;26.576;2022-07-01T15:31:23;19.08;;;17.67;;
38899;SDS011;24660;43.238;26.576;2022-07-01T15:33:50;18.83;;;17.42;;
38899;SDS011;24660;43.238;26.576;2022-07-01T15:36:15;19.05;;;17.65;;
38899;SDS011;24660;43.238;26.576;2022-07-01T15:38:41;19.40;;;18.00;;
38899;SDS011;24660;43.238;26.576;2022-07-01T15:41:06;18.67;;;17.27;;
38899;SDS011;24660;43.238;26.576;2022-07-01T15:43:33;19.05;;;17.65;;
38899;SDS011;24660;43.238;26.576;2022-07-01T15:45:59;18.50;;;17.20;;
38899;SDS011;24660;43.238;26.576;2022-07-01T15:48:25;18.90;;;17.50;;
38899;SDS011;24660;43.238;26.576;2022-07-01T15:50:51;19.20;;;17.80;;
38899;SDS011;24660;43.238;26.576;2022-07-01T15:53:18;18.50;;;17.10;;
38899;SDS011;24660;43.238;26.576;2022-07-01T15:58:12;18.48;;;17.08;;
38899;SDS011;24660;43.238;26.576;2022-07-01T16:00:40;18.88;;;17.48;;
38899;SDS011;24660;43.238;26.576;2022-07-01T16:03:07;18.83;;;17.42;;
38899;SDS011;24660;43.238;26.576;2022-07-01T16:05:33;18.70;;;17.30;;
38899;SDS011;24660;43.238;26.576;2022-07-01T16:08:00;19.00;;;17.60;;
38899;SDS011;24660;43.238;26.576;2022-07-01T16:13:09;19.52;;;18.02;;
38899;SDS011;24660;43.238;26.576;2022-07-01T16:15:36;19.13;;;17.73;;
38899;SDS011;24660;43.238;26.576;2022-07-01T16:18:06;19.27;;;17.88;;
38899;SDS011;24660;43.238;26.576;2022-07-01T16:20:34;19.38;;;17.98;;
38899;SDS011;24660;43.238;26.576;2022-07-01T16:23:04;19.83;;;18.33;;
38899;SDS011;24660;43.238;26.576;2022-07-01T16:25:31;19.65;;;18.25;;
38899;SDS011;24660;43.238;26.576;2022-07-01T16:27:58;19.30;;;17.90;;
38899;SDS011;24660;43.238;26.576;2022-07-01T16:30:24;19.23;;;17.83;;
38899;SDS011;24660;43.238;26.576;2022-07-01T16:32:53;19.08;;;17.67;;
38899;SDS011;24660;43.238;26.576;2022-07-01T16:35:19;19.45;;;17.98;;
38899;SDS011;24660;43.238;26.576;2022-07-01T16:37:48;19.25;;;17.80;;
38899;SDS011;24660;43.238;26.576;2022-07-01T16:40:21;19.45;;;17.98;;
38899;SDS011;24660;43.238;26.576;2022-07-01T16:42:52;19.75;;;18.25;;
38899;SDS011;24660;43.238;26.576;2022-07-01T16:45:17;19.35;;;17.85;;
38899;SDS011;24660;43.238;26.576;2022-07-01T16:47:53;19.30;;;17.80;;
38899;SDS011;24660;43.238;26.576;2022-07-01T16:50:20;19.27;;;17.77;;
38899;SDS011;24660;43.238;26.576;2022-07-01T16:52:48;19.58;;;18.08;;
38899;SDS011;24660;43.238;26.576;2022-07-01T16:55:20;19.73;;;18.23;;
